createdAt,value
2024-01-16T00:00:03.549Z,-2.60
2024-01-16T00:02:33.132Z,-2.60
2024-01-16T00:05:01.556Z,-2.60
2024-01-16T00:07:33.530Z,-2.60
2024-01-16T00:10:02.056Z,-2.58
2024-01-16T00:12:30.465Z,-2.62
2024-01-16T00:14:59.202Z,-2.68
2024-01-16T00:17:27.619Z,-2.64
2024-01-16T00:19:56.034Z,-2.64
2024-01-16T00:22:24.463Z,-2.61
2024-01-16T00:24:54.096Z,-2.59
2024-01-16T00:27:22.507Z,-2.69
2024-01-16T00:29:51.327Z,-2.58
2024-01-16T00:32:19.806Z,-2.52
2024-01-16T00:34:48.261Z,-2.54
2024-01-16T00:37:18.107Z,-2.59
2024-01-16T00:39:46.848Z,-2.56
2024-01-16T00:42:16.565Z,-2.67
2024-01-16T00:44:44.979Z,-2.73
2024-01-16T00:47:13.367Z,-2.77
2024-01-16T00:49:41.824Z,-2.82
2024-01-16T00:52:10.170Z,-2.92
2024-01-16T00:54:38.461Z,-3.02
2024-01-16T00:57:06.827Z,-3.08
2024-01-16T00:59:36.796Z,-3.14
2024-01-16T01:02:05.953Z,-3.20
2024-01-16T01:04:36.226Z,-3.26
2024-01-16T01:07:05.022Z,-3.27
2024-01-16T01:09:35.262Z,-3.33
2024-01-16T01:12:03.687Z,-3.41
2024-01-16T01:14:32.584Z,-3.51
2024-01-16T01:17:02.411Z,-3.64
2024-01-16T01:19:30.966Z,-3.81
2024-01-16T01:21:59.465Z,-3.92
2024-01-16T01:24:28.649Z,-3.97
2024-01-16T01:26:57.062Z,-4.02
2024-01-16T01:29:25.444Z,-4.00
2024-01-16T01:31:53.949Z,-4.10
2024-01-16T01:34:24.001Z,-4.14
2024-01-16T01:36:52.787Z,-4.22
2024-01-16T01:39:21.077Z,-4.27
2024-01-16T01:41:49.511Z,-4.37
2024-01-16T01:44:17.971Z,-4.32
2024-01-16T01:46:47.468Z,-4.32
2024-01-16T01:49:18.063Z,-4.30
2024-01-16T01:51:48.753Z,-4.19
2024-01-16T01:54:20.416Z,-4.15
2024-01-16T01:56:50.633Z,-4.13
2024-01-16T01:59:22.085Z,-4.10
2024-01-16T02:01:54.024Z,-3.99
2024-01-16T02:04:24.354Z,-3.90
2024-01-16T02:06:54.416Z,-3.82
2024-01-16T02:09:23.058Z,-3.78
2024-01-16T02:11:51.457Z,-3.75
2024-01-16T02:14:19.935Z,-3.67
2024-01-16T02:16:48.399Z,-3.63
2024-01-16T02:19:16.920Z,-3.61
2024-01-16T02:21:50.945Z,-3.59
2024-01-16T02:24:22.701Z,-3.52
2024-01-16T02:26:51.189Z,-3.51
2024-01-16T02:29:19.998Z,-3.52
2024-01-16T02:31:48.461Z,-3.51
2024-01-16T02:34:17.172Z,-3.46
2024-01-16T02:36:45.796Z,-3.46
2024-01-16T02:39:14.286Z,-3.45
2024-01-16T02:41:44.137Z,-3.56
2024-01-16T02:44:12.707Z,-3.52
2024-01-16T02:46:41.260Z,-3.54
2024-01-16T02:49:09.804Z,-3.56
2024-01-16T02:51:38.229Z,-3.59
2024-01-16T02:54:10.362Z,-3.55
2024-01-16T02:56:38.714Z,-3.54
2024-01-16T02:59:08.838Z,-3.62
2024-01-16T03:01:37.487Z,-3.67
2024-01-16T03:04:06.425Z,-3.67
2024-01-16T03:06:35.207Z,-3.69
2024-01-16T03:09:03.722Z,-3.65
2024-01-16T03:11:33.903Z,-3.67
2024-01-16T03:14:02.678Z,-3.67
2024-01-16T03:16:34.085Z,-3.69
2024-01-16T03:19:02.466Z,-3.69
2024-01-16T03:21:30.894Z,-3.72
2024-01-16T03:23:59.193Z,-3.75
2024-01-16T03:26:27.530Z,-3.78
2024-01-16T03:28:55.913Z,-3.79
2024-01-16T03:31:24.528Z,-3.82
2024-01-16T03:33:54.462Z,-3.83
2024-01-16T03:36:22.910Z,-3.93
2024-01-16T03:38:51.527Z,-4.02
2024-01-16T03:41:19.930Z,-4.07
2024-01-16T03:43:48.548Z,-4.09
2024-01-16T03:46:16.874Z,-4.16
2024-01-16T03:48:45.253Z,-4.20
2024-01-16T03:51:16.701Z,-4.26
2024-01-16T03:53:45.206Z,-4.29
2024-01-16T03:56:14.139Z,-4.39
2024-01-16T03:58:43.906Z,-4.54
2024-01-16T04:01:14.095Z,-4.63
2024-01-16T04:03:42.560Z,-4.75
2024-01-16T04:06:19.524Z,-4.88
2024-01-16T04:08:48.380Z,-5.01
2024-01-16T04:11:17.448Z,-5.04
2024-01-16T04:13:46.211Z,-5.03
2024-01-16T04:16:15.306Z,-5.04
2024-01-16T04:18:45.900Z,-5.08
2024-01-16T04:21:17.442Z,-5.13
2024-01-16T04:23:48.917Z,-5.23
2024-01-16T04:26:17.412Z,-5.28
2024-01-16T04:28:45.902Z,-5.40
2024-01-16T04:31:14.713Z,-5.50
2024-01-16T04:33:43.264Z,-5.47
2024-01-16T04:36:11.941Z,-5.49
2024-01-16T04:38:40.376Z,-5.53
2024-01-16T04:41:10.584Z,-5.49
2024-01-16T04:43:38.917Z,-5.57
2024-01-16T04:46:07.269Z,-5.57
2024-01-16T04:48:35.723Z,-5.53
2024-01-16T04:51:04.748Z,-5.44
2024-01-16T04:53:33.429Z,-5.44
2024-01-16T04:56:01.952Z,-5.37
2024-01-16T04:58:31.732Z,-5.33
2024-01-16T05:01:00.377Z,-5.34
2024-01-16T05:03:28.836Z,-5.37
2024-01-16T05:05:58.253Z,-5.38
2024-01-16T05:08:26.859Z,-5.29
2024-01-16T05:10:55.869Z,-5.27
2024-01-16T05:13:24.382Z,-5.22
2024-01-16T05:15:54.155Z,-5.24
2024-01-16T05:18:23.062Z,-5.27
2024-01-16T05:20:51.691Z,-5.18
2024-01-16T05:23:20.308Z,-5.17
2024-01-16T05:25:48.749Z,-5.26
2024-01-16T05:28:17.217Z,-5.15
2024-01-16T05:30:46.917Z,-5.25
2024-01-16T05:33:17.316Z,-5.31
2024-01-16T05:35:45.914Z,-5.26
2024-01-16T05:38:14.678Z,-5.28
2024-01-16T05:40:43.217Z,-5.38
2024-01-16T05:43:11.612Z,-5.39
2024-01-16T05:45:40.382Z,-5.43
2024-01-16T05:48:10.019Z,-5.49
2024-01-16T05:50:40.364Z,-5.53
2024-01-16T05:53:08.771Z,-5.63
2024-01-16T05:55:38.161Z,-5.63
2024-01-16T05:58:06.877Z,-5.71
2024-01-16T06:00:35.883Z,-5.73
2024-01-16T06:03:05.161Z,-5.85
2024-01-16T06:05:33.725Z,-5.92
2024-01-16T06:08:04.150Z,-5.96
2024-01-16T06:10:32.462Z,-5.94
2024-01-16T06:13:01.026Z,-5.92
2024-01-16T06:15:29.637Z,-5.92
2024-01-16T06:17:58.082Z,-6.01
2024-01-16T06:20:26.935Z,-6.01
2024-01-16T06:22:55.618Z,-6.04
2024-01-16T06:25:25.537Z,-6.06
2024-01-16T06:27:53.843Z,-6.13
2024-01-16T06:30:22.236Z,-6.15
2024-01-16T06:32:50.919Z,-6.11
2024-01-16T06:35:19.977Z,-6.19
2024-01-16T06:37:48.445Z,-6.13
2024-01-16T06:40:17.317Z,-6.17
2024-01-16T06:42:47.100Z,-6.19
2024-01-16T06:45:16.933Z,-6.12
2024-01-16T06:47:46.146Z,-6.02
2024-01-16T06:50:15.419Z,-6.06
2024-01-16T06:52:44.058Z,-6.08
2024-01-16T06:55:12.438Z,-6.09
2024-01-16T06:57:41.050Z,-6.14
2024-01-16T07:00:13.559Z,-6.21
2024-01-16T07:02:44.361Z,-6.40
2024-01-16T07:05:14.002Z,-6.66
2024-01-16T07:07:42.434Z,-6.85
2024-01-16T07:10:14.754Z,-6.98
2024-01-16T07:12:43.082Z,-7.00
2024-01-16T07:15:13.152Z,-6.96
2024-01-16T07:17:42.048Z,-6.91
2024-01-16T07:20:12.671Z,-6.87
2024-01-16T07:22:41.558Z,-6.87
2024-01-16T07:25:10.741Z,-6.78
2024-01-16T07:27:40.254Z,-6.69
2024-01-16T07:30:10.008Z,-6.59
2024-01-16T07:32:39.976Z,-6.52
2024-01-16T07:35:09.205Z,-6.48
2024-01-16T07:37:37.706Z,-6.27
2024-01-16T07:40:07.161Z,-6.10
2024-01-16T07:42:36.158Z,-6.00
2024-01-16T07:45:06.399Z,-5.89
2024-01-16T07:47:35.591Z,-5.86
2024-01-16T07:50:08.494Z,-5.79
2024-01-16T07:52:37.194Z,-5.67
2024-01-16T07:55:06.443Z,-5.49
2024-01-16T07:57:34.859Z,-5.35
2024-01-16T08:00:04.406Z,-5.18
2024-01-16T08:02:35.705Z,-5.11
2024-01-16T08:05:06.829Z,-5.14
2024-01-16T08:07:35.975Z,-5.16
2024-01-16T08:10:05.004Z,-4.96
2024-01-16T08:12:33.518Z,-5.05
2024-01-16T08:15:01.899Z,-4.99
2024-01-16T08:17:31.034Z,-4.96
2024-01-16T08:19:59.442Z,-4.97
2024-01-16T08:22:29.322Z,-5.01
2024-01-16T08:24:58.093Z,-5.07
2024-01-16T08:27:26.621Z,-4.74
2024-01-16T08:29:55.193Z,-4.70
2024-01-16T08:32:23.629Z,-4.58
2024-01-16T08:34:52.551Z,-4.58
2024-01-16T08:37:21.198Z,-4.42
2024-01-16T08:39:51.043Z,-4.28
2024-01-16T08:42:19.828Z,-4.06
2024-01-16T08:44:48.194Z,-3.82
2024-01-16T08:47:16.737Z,-3.52
2024-01-16T08:49:45.701Z,-3.34
2024-01-16T08:52:14.425Z,-3.58
2024-01-16T08:54:42.863Z,-3.71
2024-01-16T08:57:16.411Z,-3.63
2024-01-16T08:59:46.404Z,-3.51
2024-01-16T09:02:14.865Z,-3.57
2024-01-16T09:04:43.364Z,-3.34
2024-01-16T09:07:11.944Z,-3.47
2024-01-16T09:09:40.396Z,-3.19
2024-01-16T09:12:09.173Z,-3.22
2024-01-16T09:14:39.188Z,-3.23
2024-01-16T09:17:07.681Z,-2.81
2024-01-16T09:19:36.369Z,-2.81
2024-01-16T09:22:05.586Z,-2.79
2024-01-16T09:24:33.990Z,-2.61
2024-01-16T09:27:02.466Z,-2.76
2024-01-16T09:29:31.430Z,-2.74
2024-01-16T09:32:01.224Z,-2.42
2024-01-16T09:34:30.043Z,-2.68
2024-01-16T09:37:00.411Z,-2.40
2024-01-16T09:39:28.888Z,-2.22
2024-01-16T09:42:00.909Z,-1.93
2024-01-16T09:44:30.129Z,-2.18
2024-01-16T09:47:04.532Z,-2.52
2024-01-16T09:49:33.042Z,-2.65
2024-01-16T09:52:03.218Z,-2.62
2024-01-16T09:54:31.783Z,-2.06
2024-01-16T09:57:04.726Z,-2.26
2024-01-16T09:59:36.911Z,-2.09
2024-01-16T10:02:07.890Z,-2.03
2024-01-16T10:04:37.276Z,-2.09
2024-01-16T10:07:07.357Z,-2.15
2024-01-16T10:09:35.961Z,-2.53
2024-01-16T10:12:05.162Z,-2.36
2024-01-16T10:14:34.239Z,-2.29
2024-01-16T10:17:06.973Z,-2.66
2024-01-16T10:19:43.347Z,-2.42
2024-01-16T10:22:25.862Z,-2.23
2024-01-16T10:25:07.743Z,-1.99
2024-01-16T10:27:36.520Z,-2.01
2024-01-16T10:30:06.627Z,-2.29
2024-01-16T10:32:39.675Z,-2.21
2024-01-16T10:35:13.106Z,-1.89
2024-01-16T10:37:49.713Z,-1.82
2024-01-16T10:40:22.479Z,-1.86
2024-01-16T10:43:01.877Z,-1.55
2024-01-16T10:45:30.645Z,-2.01
2024-01-16T10:48:07.802Z,-1.91
2024-01-16T10:50:41.160Z,-2.03
2024-01-16T10:53:10.849Z,-2.13
2024-01-16T10:55:52.489Z,-2.44
2024-01-16T10:58:25.131Z,-2.56
2024-01-16T11:00:56.584Z,-2.43
2024-01-16T11:03:48.819Z,-2.45
2024-01-16T11:06:20.681Z,-2.27
2024-01-16T11:08:50.666Z,-1.97
2024-01-16T11:11:19.646Z,-2.18
2024-01-16T11:13:49.339Z,-1.84
2024-01-16T11:16:18.486Z,-1.54
2024-01-16T11:18:46.974Z,-1.64
2024-01-16T11:21:19.434Z,-1.76
2024-01-16T11:23:49.894Z,-1.83
2024-01-16T11:26:30.422Z,-1.57
2024-01-16T11:29:00.368Z,-1.56
2024-01-16T11:31:37.461Z,-1.55
2024-01-16T11:34:06.569Z,-1.50
2024-01-16T11:36:56.836Z,-1.38
2024-01-16T11:39:27.556Z,-1.26
2024-01-16T11:41:58.101Z,-1.05
2024-01-16T11:44:45.196Z,-0.70
2024-01-16T11:47:19.857Z,-0.87
2024-01-16T11:49:49.941Z,-0.85
2024-01-16T11:52:44.282Z,-0.83
2024-01-16T11:55:28.544Z,-0.83
2024-01-16T11:58:23.761Z,-0.94
2024-01-16T12:00:53.561Z,-0.84
2024-01-16T12:03:31.814Z,-1.05
2024-01-16T12:06:07.713Z,-0.99
2024-01-16T12:08:39.052Z,-0.64
2024-01-16T12:11:07.111Z,-0.80
2024-01-16T12:13:35.544Z,-0.43
2024-01-16T12:16:05.331Z,-0.29
2024-01-16T12:18:41.375Z,-0.20
2024-01-16T12:21:14.235Z,-0.39
2024-01-16T12:23:52.479Z,-0.38
2024-01-16T12:26:25.396Z,-0.52
2024-01-16T12:28:58.724Z,-0.70
2024-01-16T12:31:30.277Z,-0.50
2024-01-16T12:34:09.568Z,-0.42
2024-01-16T12:36:39.800Z,-0.47
2024-01-16T12:39:13.966Z,-0.10
2024-01-16T12:41:46.471Z,0.22
2024-01-16T12:44:17.528Z,-0.02
2024-01-16T12:46:55.771Z,-0.38
2024-01-16T12:49:24.848Z,-0.65
2024-01-16T12:51:54.127Z,-0.70
2024-01-16T12:54:25.239Z,-0.77
2024-01-16T12:57:01.213Z,-0.82
2024-01-16T12:59:31.897Z,-0.66
2024-01-16T13:02:01.784Z,-0.45
2024-01-16T13:04:30.164Z,-0.56
2024-01-16T13:07:05.058Z,-0.45
2024-01-16T13:09:34.935Z,-0.53
2024-01-16T13:12:03.479Z,-0.51
2024-01-16T13:14:31.999Z,-0.41
2024-01-16T13:17:02.560Z,-0.32
2024-01-16T13:19:34.731Z,-0.45
2024-01-16T13:22:03.208Z,-0.53
2024-01-16T13:24:31.497Z,-0.76
2024-01-16T13:27:01.921Z,-0.87
2024-01-16T13:29:30.283Z,-1.02
2024-01-16T13:31:59.585Z,-1.12
2024-01-16T13:34:28.188Z,-0.92
2024-01-16T13:37:15.002Z,-0.92
2024-01-16T13:39:45.483Z,-0.96
2024-01-16T13:42:19.418Z,-0.92
2024-01-16T13:44:48.837Z,-0.86
2024-01-16T13:47:23.080Z,-0.89
2024-01-16T13:49:51.912Z,-1.19
2024-01-16T13:52:23.541Z,-1.29
2024-01-16T13:54:53.836Z,-1.44
2024-01-16T13:57:23.566Z,-1.52
2024-01-16T13:59:52.319Z,-1.56
2024-01-16T14:02:20.811Z,-1.64
2024-01-16T14:04:49.270Z,-1.65
2024-01-16T14:07:26.003Z,-1.62
2024-01-16T14:09:54.374Z,-1.80
2024-01-16T14:12:22.765Z,-1.91
2024-01-16T14:14:51.386Z,-1.91
2024-01-16T14:17:19.771Z,-1.91
2024-01-16T14:19:48.212Z,-1.90
2024-01-16T14:22:16.860Z,-1.81
2024-01-16T14:24:48.965Z,-1.96
2024-01-16T14:27:18.704Z,-2.02
2024-01-16T14:29:47.320Z,-2.13
2024-01-16T14:32:15.716Z,-2.26
2024-01-16T14:34:44.131Z,-2.30
2024-01-16T14:37:12.936Z,-2.35
2024-01-16T14:39:41.815Z,-2.32
2024-01-16T14:42:11.709Z,-2.24
2024-01-16T14:44:42.366Z,-2.24
2024-01-16T14:47:10.869Z,-2.23
2024-01-16T14:49:39.692Z,-2.28
2024-01-16T14:52:08.974Z,-2.37
2024-01-16T14:54:37.353Z,-2.41
2024-01-16T14:57:08.511Z,-2.48
2024-01-16T14:59:38.738Z,-2.43
2024-01-16T15:02:13.902Z,-2.50
2024-01-16T15:04:47.129Z,-2.56
2024-01-16T15:07:16.346Z,-2.57
2024-01-16T15:09:44.795Z,-2.60
2024-01-16T15:12:14.931Z,-2.61
2024-01-16T15:14:44.864Z,-2.60
2024-01-16T15:17:13.293Z,-2.57
2024-01-16T15:19:42.032Z,-2.57
2024-01-16T15:22:10.506Z,-2.62
2024-01-16T15:24:38.812Z,-2.66
2024-01-16T15:27:07.702Z,-2.65
2024-01-16T15:29:36.465Z,-2.61
2024-01-16T15:32:07.433Z,-2.62
2024-01-16T15:34:38.223Z,-2.67
2024-01-16T15:37:07.001Z,-2.72
2024-01-16T15:39:35.421Z,-2.67
2024-01-16T15:42:04.020Z,-2.66
2024-01-16T15:44:32.412Z,-2.70
2024-01-16T15:47:02.327Z,-2.76
2024-01-16T15:49:33.412Z,-2.78
2024-01-16T15:52:02.533Z,-2.86
2024-01-16T15:54:33.213Z,-2.88
2024-01-16T15:57:02.318Z,-2.93
2024-01-16T15:59:30.850Z,-3.04
2024-01-16T16:02:01.275Z,-3.19
2024-01-16T16:04:32.654Z,-3.29
2024-01-16T16:07:01.486Z,-3.34
2024-01-16T16:09:30.910Z,-3.38
2024-01-16T16:11:59.689Z,-3.44
2024-01-16T16:14:32.241Z,-3.46
2024-01-16T16:17:03.502Z,-3.48
2024-01-16T16:19:33.751Z,-3.52
2024-01-16T16:22:02.269Z,-3.56
2024-01-16T16:24:31.921Z,-3.59
2024-01-16T16:27:01.239Z,-3.61
2024-01-16T16:29:30.681Z,-3.62
2024-01-16T16:31:59.493Z,-3.66
2024-01-16T16:34:27.977Z,-3.69
2024-01-16T16:36:58.240Z,-3.74
2024-01-16T16:39:26.631Z,-3.81
2024-01-16T16:41:55.073Z,-3.84
2024-01-16T16:44:23.473Z,-3.92
2024-01-16T16:46:51.802Z,-4.00
2024-01-16T16:49:20.588Z,-4.15
2024-01-16T16:51:48.904Z,-4.13
2024-01-16T16:54:18.932Z,-4.10
2024-01-16T16:56:47.517Z,-4.11
2024-01-16T16:59:16.046Z,-4.12
2024-01-16T17:01:44.486Z,-4.17
2024-01-16T17:04:12.954Z,-4.20
2024-01-16T17:06:41.411Z,-4.17
2024-01-16T17:09:12.978Z,-4.21
2024-01-16T17:11:42.896Z,-4.29
2024-01-16T17:14:11.628Z,-4.22
2024-01-16T17:16:41.355Z,-4.19
2024-01-16T17:19:11.925Z,-4.22
2024-01-16T17:21:43.113Z,-4.17
2024-01-16T17:24:11.530Z,-4.19
2024-01-16T17:26:40.984Z,-4.20
2024-01-16T17:29:10.827Z,-4.23
2024-01-16T17:31:39.559Z,-4.27
2024-01-16T17:34:08.214Z,-4.27
2024-01-16T17:36:41.017Z,-4.35
2024-01-16T17:39:10.988Z,-4.41
2024-01-16T17:41:40.647Z,-4.49
2024-01-16T17:44:11.153Z,-4.61
2024-01-16T17:46:43.861Z,-4.66
2024-01-16T17:49:12.316Z,-4.68
2024-01-16T17:51:41.757Z,-4.89
2024-01-16T17:54:10.131Z,-5.00
2024-01-16T17:56:39.384Z,-5.08
2024-01-16T17:59:07.767Z,-5.09
2024-01-16T18:01:38.442Z,-5.17
2024-01-16T18:04:09.289Z,-5.28
2024-01-16T18:06:38.444Z,-5.31
2024-01-16T18:09:10.978Z,-5.38
2024-01-16T18:11:56.527Z,-5.52
2024-01-16T18:14:26.316Z,-5.66
2024-01-16T18:16:56.477Z,-5.79
2024-01-16T18:19:26.739Z,-5.83
2024-01-16T18:21:56.465Z,-5.91
2024-01-16T18:24:25.956Z,-5.98
2024-01-16T18:26:54.922Z,-5.96
2024-01-16T18:29:23.488Z,-5.99
2024-01-16T18:31:51.955Z,-5.98
2024-01-16T18:34:22.437Z,-6.06
2024-01-16T18:36:51.949Z,-6.17
2024-01-16T18:39:21.596Z,-6.13
2024-01-16T18:41:52.194Z,-6.31
2024-01-16T18:44:21.870Z,-6.45
2024-01-16T18:46:50.176Z,-6.63
2024-01-16T18:49:19.645Z,-6.68
2024-01-16T18:51:49.533Z,-6.74
2024-01-16T18:54:17.960Z,-6.65
2024-01-16T18:56:46.343Z,-6.79
2024-01-16T18:59:14.893Z,-6.96
2024-01-16T19:01:44.780Z,-6.89
2024-01-16T19:04:18.201Z,-6.91
2024-01-16T19:06:47.143Z,-6.94
2024-01-16T19:09:18.708Z,-6.86
2024-01-16T19:11:51.114Z,-6.74
2024-01-16T19:14:19.803Z,-6.75
2024-01-16T19:16:50.627Z,-6.93
2024-01-16T19:19:21.635Z,-7.09
2024-01-16T19:21:50.223Z,-7.16
2024-01-16T19:24:20.139Z,-7.24
2024-01-16T19:26:48.994Z,-7.28
2024-01-16T19:29:20.810Z,-7.34
2024-01-16T19:31:49.650Z,-7.46
2024-01-16T19:34:18.627Z,-7.52
2024-01-16T19:36:51.420Z,-7.53
2024-01-16T19:39:22.470Z,-7.55
2024-01-16T19:41:51.174Z,-7.53
2024-01-16T19:44:21.180Z,-7.63
2024-01-16T19:46:49.678Z,-7.92
2024-01-16T19:49:18.380Z,-7.88
2024-01-16T19:51:47.367Z,-7.70
2024-01-16T19:54:16.253Z,-7.59
2024-01-16T19:56:47.178Z,-7.56
2024-01-16T19:59:15.995Z,-7.57
2024-01-16T20:01:44.880Z,-7.51
2024-01-16T20:04:13.210Z,-7.48
2024-01-16T20:06:45.395Z,-7.63
2024-01-16T20:09:17.479Z,-7.83
2024-01-16T20:11:47.688Z,-7.99
2024-01-16T20:14:16.859Z,-7.98
2024-01-16T20:16:45.553Z,-7.94
2024-01-16T20:19:14.528Z,-8.02
2024-01-16T20:21:45.607Z,-8.18
2024-01-16T20:24:14.286Z,-8.12
2024-01-16T20:26:42.938Z,-8.11
2024-01-16T20:29:12.714Z,-7.99
2024-01-16T20:31:42.013Z,-7.94
2024-01-16T20:34:10.652Z,-7.96
2024-01-16T20:36:39.055Z,-7.80
2024-01-16T20:39:12.172Z,-7.77
2024-01-16T20:41:40.915Z,-7.89
2024-01-16T20:44:10.940Z,-7.97
2024-01-16T20:46:40.790Z,-7.93
2024-01-16T20:49:10.005Z,-7.73
2024-01-16T20:51:38.460Z,-7.66
2024-01-16T20:54:07.073Z,-7.74
2024-01-16T20:56:35.888Z,-7.69
2024-01-16T20:59:04.712Z,-7.70
2024-01-16T21:01:33.317Z,-7.57
2024-01-16T21:04:02.981Z,-7.48
2024-01-16T21:06:31.829Z,-7.49
2024-01-16T21:09:00.545Z,-7.46
2024-01-16T21:11:28.991Z,-7.49
2024-01-16T21:13:57.402Z,-7.48
2024-01-16T21:16:26.228Z,-7.52
2024-01-16T21:18:55.088Z,-7.47
2024-01-16T21:21:26.072Z,-7.58
2024-01-16T21:23:54.878Z,-7.65
2024-01-16T21:26:23.419Z,-7.60
2024-01-16T21:28:52.437Z,-7.74
2024-01-16T21:31:20.813Z,-7.77
2024-01-16T21:33:49.284Z,-7.67
2024-01-16T21:36:17.960Z,-7.59
2024-01-16T21:38:47.729Z,-7.59
2024-01-16T21:41:16.076Z,-7.57
2024-01-16T21:43:44.847Z,-7.71
2024-01-16T21:46:13.944Z,-7.61
2024-01-16T21:48:42.753Z,-7.48
2024-01-16T21:51:11.256Z,-7.47
2024-01-16T21:53:39.910Z,-7.69
2024-01-16T21:56:09.719Z,-7.66
2024-01-16T21:58:38.136Z,-7.70
2024-01-16T22:01:07.187Z,-7.65
2024-01-16T22:03:35.914Z,-7.68
2024-01-16T22:06:05.121Z,-7.80
2024-01-16T22:08:33.956Z,-7.87
2024-01-16T22:11:02.440Z,-7.97
2024-01-16T22:13:32.161Z,-7.96
2024-01-16T22:16:00.474Z,-8.00
2024-01-16T22:18:29.288Z,-8.04
2024-01-16T22:20:57.770Z,-7.80
2024-01-16T22:23:26.289Z,-7.82
2024-01-16T22:25:54.761Z,-7.95
2024-01-16T22:28:23.152Z,-7.99
2024-01-16T22:30:52.878Z,-7.90
2024-01-16T22:33:21.380Z,-7.96
2024-01-16T22:35:50.114Z,-8.03
2024-01-16T22:38:19.474Z,-8.01
2024-01-16T22:40:48.783Z,-8.07
2024-01-16T22:43:17.196Z,-8.16
2024-01-16T22:45:46.499Z,-8.27
2024-01-16T22:48:16.549Z,-8.21
2024-01-16T22:50:50.501Z,-8.09
2024-01-16T22:53:19.427Z,-8.13
2024-01-16T22:55:49.967Z,-8.25
2024-01-16T22:58:18.534Z,-8.41
2024-01-16T23:05:03.412Z,-8.56
2024-01-16T23:07:31.856Z,-8.46
2024-01-16T23:10:00.349Z,-8.40
2024-01-16T23:12:29.470Z,-8.33
2024-01-16T23:14:58.624Z,-8.23
2024-01-16T23:17:27.437Z,-8.11
2024-01-16T23:19:56.130Z,-8.04
2024-01-16T23:22:26.466Z,-8.00
2024-01-16T23:24:54.876Z,-7.87
2024-01-16T23:27:23.807Z,-7.80
2024-01-16T23:29:52.573Z,-7.70
2024-01-16T23:32:21.061Z,-7.69
2024-01-16T23:34:49.729Z,-7.63
2024-01-16T23:37:24.906Z,-7.64
2024-01-16T23:39:54.813Z,-7.63
2024-01-16T23:42:23.896Z,-7.65
2024-01-16T23:44:53.515Z,-7.69
2024-01-16T23:47:22.112Z,-7.71
2024-01-16T23:49:52.054Z,-7.72
2024-01-16T23:52:21.206Z,-7.71
2024-01-16T23:54:49.718Z,-7.69
2024-01-16T23:57:19.749Z,-7.62
2024-01-16T23:59:48.470Z,-7.66
